Time;durP1;ratioP1;P1;durP2;ratioP2;P2;SDS_P1;SDS_P2;PMS_P1;PMS_P2;Temp;Humidity;BMP_temperature;BMP_pressure;BME280_temperature;BME280_humidity;BME280_pressure;Samples;Min_cycle;Max_cycle;Signal;HPM_P1;HPM_P2
2024/01/24 00:00:14;;;;;;;5.22;1.58;;;;;;;;;;4997270;28;20788;-72
2024/01/24 00:02:39;;;;;;;3.08;1.20;;;;;;;;;;4996531;28;20046;-69
2024/01/24 00:05:05;;;;;;;3.30;1.40;;;;;;;;;;4979116;28;20057;-66
2024/01/24 00:07:31;;;;;;;1.30;1.17;;;;;;;;;;4996957;28;20041;-65
2024/01/24 00:09:56;;;;;;;4.95;1.50;;;;;;;;;;4997117;28;20034;-68
2024/01/24 00:12:22;;;;;;;1.58;1.00;;;;;;;;;;4980430;28;20507;-68
2024/01/24 00:14:47;;;;;;;2.70;1.38;;;;;;;;;;4979389;28;20053;-66
2024/01/24 00:17:13;;;;;;;2.88;1.45;;;;;;;;;;4996274;28;20518;-66
2024/01/24 00:19:38;;;;;;;3.78;1.60;;;;;;;;;;4996282;28;20081;-65
2024/01/24 00:22:03;;;;;;;2.72;1.38;;;;;;;;;;4996625;28;20111;-67
2024/01/24 00:24:29;;;;;;;3.05;1.55;;;;;;;;;;4995413;28;20053;-66
2024/01/24 00:26:54;;;;;;;4.75;1.45;;;;;;;;;;4996033;28;20037;-65
2024/01/24 00:29:20;;;;;;;5.22;1.63;;;;;;;;;;4996258;28;20521;-65
2024/01/24 00:31:48;;;;;;;4.65;1.50;;;;;;;;;;4996698;28;20425;-66
2024/01/24 00:34:13;;;;;;;2.15;1.55;;;;;;;;;;4997027;28;20148;-68
2024/01/24 00:36:39;;;;;;;2.08;1.30;;;;;;;;;;4995248;28;20488;-66
2024/01/24 00:39:05;;;;;;;3.70;1.88;;;;;;;;;;4996027;28;20545;-67
2024/01/24 00:41:31;;;;;;;6.28;2.13;;;;;;;;;;4994925;28;20042;-68
2024/01/24 00:43:56;;;;;;;5.63;2.03;;;;;;;;;;4996320;28;20119;-67
2024/01/24 00:46:22;;;;;;;6.40;2.03;;;;;;;;;;4995934;28;20049;-68
2024/01/24 00:48:47;;;;;;;5.05;2.17;;;;;;;;;;4995906;28;20641;-65
2024/01/24 00:51:12;;;;;;;2.90;2.00;;;;;;;;;;4996766;28;20042;-67
2024/01/24 00:53:40;;;;;;;4.53;2.50;;;;;;;;;;4980146;28;20064;-64
2024/01/24 00:56:05;;;;;;;4.72;2.20;;;;;;;;;;4997169;28;20510;-65
2024/01/24 00:58:31;;;;;;;6.22;2.38;;;;;;;;;;4978863;28;20049;-65
2024/01/24 01:00:56;;;;;;;6.88;2.75;;;;;;;;;;4980885;28;20144;-64
2024/01/24 01:03:21;;;;;;;4.82;2.75;;;;;;;;;;4995629;28;20041;-65
2024/01/24 01:05:47;;;;;;;5.32;2.97;;;;;;;;;;4997254;28;20090;-64
2024/01/24 01:08:12;;;;;;;6.63;3.33;;;;;;;;;;4996730;28;20048;-63
2024/01/24 01:10:38;;;;;;;3.00;2.53;;;;;;;;;;4994458;28;20132;-66
2024/01/24 01:13:03;;;;;;;4.47;2.53;;;;;;;;;;4996580;28;20621;-66
2024/01/24 01:15:29;;;;;;;4.80;2.50;;;;;;;;;;4994933;28;20491;-68
2024/01/24 01:17:54;;;;;;;3.70;2.47;;;;;;;;;;4995350;28;20423;-67
2024/01/24 01:20:20;;;;;;;4.30;3.03;;;;;;;;;;4994492;28;20057;-69
2024/01/24 01:22:46;;;;;;;5.85;2.90;;;;;;;;;;4993558;28;20053;-72
2024/01/24 01:25:12;;;;;;;3.80;2.65;;;;;;;;;;4994225;28;20073;-70
2024/01/24 01:27:37;;;;;;;5.53;3.00;;;;;;;;;;4994208;28;20046;-69
2024/01/24 01:30:04;;;;;;;4.03;2.70;;;;;;;;;;4996397;28;20418;-69
2024/01/24 01:32:29;;;;;;;7.03;2.70;;;;;;;;;;4994632;28;20042;-68
2024/01/24 01:34:55;;;;;;;4.28;2.95;;;;;;;;;;4996139;28;20107;-72
2024/01/24 01:37:23;;;;;;;3.85;2.80;;;;;;;;;;4996247;28;20455;-69
2024/01/24 01:39:51;;;;;;;6.20;3.15;;;;;;;;;;4995339;28;20065;-68
2024/01/24 01:42:17;;;;;;;5.15;2.70;;;;;;;;;;4996291;28;20570;-71
2024/01/24 01:44:48;;;;;;;4.70;2.88;;;;;;;;;;4995016;28;20120;-69
2024/01/24 01:47:15;;;;;;;6.05;3.25;;;;;;;;;;4996320;28;20132;-67
2024/01/24 01:49:43;;;;;;;6.63;2.88;;;;;;;;;;4994837;28;20096;-66
2024/01/24 01:52:08;;;;;;;5.35;2.63;;;;;;;;;;4980669;28;20128;-67
2024/01/24 01:54:34;;;;;;;4.13;2.85;;;;;;;;;;4994764;28;20095;-69
2024/01/24 01:56:59;;;;;;;3.20;2.90;;;;;;;;;;4996146;28;20042;-65
2024/01/24 01:59:25;;;;;;;3.95;2.70;;;;;;;;;;4995374;28;20099;-66
2024/01/24 02:01:54;;;;;;;4.68;3.13;;;;;;;;;;4995704;28;21015;-69
2024/01/24 02:04:20;;;;;;;3.63;2.80;;;;;;;;;;4978193;28;20046;-66
2024/01/24 02:06:46;;;;;;;9.20;3.22;;;;;;;;;;4994341;28;21074;-69
2024/01/24 02:09:11;;;;;;;6.20;3.33;;;;;;;;;;4995979;28;20060;-66
2024/01/24 02:11:39;;;;;;;5.53;3.28;;;;;;;;;;4994306;28;20057;-66
2024/01/24 02:14:04;;;;;;;6.15;4.10;;;;;;;;;;4995834;28;20052;-69
2024/01/24 02:16:30;;;;;;;6.80;2.90;;;;;;;;;;4993541;28;20399;-67
2024/01/24 02:18:55;;;;;;;4.55;2.85;;;;;;;;;;4995825;28;20145;-67
2024/01/24 02:21:21;;;;;;;6.18;3.03;;;;;;;;;;4994187;28;20629;-65
2024/01/24 02:23:47;;;;;;;4.28;2.95;;;;;;;;;;4994857;28;20049;-67
2024/01/24 02:26:13;;;;;;;7.10;3.42;;;;;;;;;;4995610;28;20049;-65
2024/01/24 02:28:39;;;;;;;5.75;3.10;;;;;;;;;;4994445;28;20081;-68
2024/01/24 02:31:04;;;;;;;4.63;2.55;;;;;;;;;;4979879;28;20899;-65
2024/01/24 02:33:30;;;;;;;3.85;2.90;;;;;;;;;;4994316;28;20104;-65
2024/01/24 02:35:55;;;;;;;4.55;3.58;;;;;;;;;;4995655;28;20077;-64
2024/01/24 02:38:21;;;;;;;5.07;3.28;;;;;;;;;;4996494;28;20061;-69
2024/01/24 02:40:46;;;;;;;5.13;2.90;;;;;;;;;;4997298;28;20705;-66
2024/01/24 02:43:11;;;;;;;4.50;2.80;;;;;;;;;;4998228;28;20073;-69
2024/01/24 02:45:37;;;;;;;6.07;3.28;;;;;;;;;;4983135;28;20045;-65
2024/01/24 02:48:02;;;;;;;3.38;2.45;;;;;;;;;;4999348;28;20245;-69
2024/01/24 02:50:28;;;;;;;4.22;3.33;;;;;;;;;;4998411;28;20042;-65
2024/01/24 02:52:53;;;;;;;3.78;2.70;;;;;;;;;;4998248;28;20266;-67
2024/01/24 02:55:18;;;;;;;2.50;2.30;;;;;;;;;;4998235;28;20045;-65
2024/01/24 02:57:44;;;;;;;1.13;0.98;;;;;;;;;;4980263;28;20181;-67
2024/01/24 03:00:12;;;;;;;0.68;0.68;;;;;;;;;;4998013;28;20097;-66
2024/01/24 03:02:38;;;;;;;1.00;0.52;;;;;;;;;;4996777;28;20107;-67
2024/01/24 03:05:05;;;;;;;0.50;0.50;;;;;;;;;;4983239;28;20050;-66
2024/01/24 03:07:31;;;;;;;1.05;0.60;;;;;;;;;;4998542;28;20693;-69
2024/01/24 03:09:56;;;;;;;1.13;0.38;;;;;;;;;;4997937;28;20050;-66
2024/01/24 03:12:22;;;;;;;0.65;0.50;;;;;;;;;;4997974;28;20042;-66
2024/01/24 03:14:47;;;;;;;0.40;0.40;;;;;;;;;;4997077;28;20441;-65
2024/01/24 03:17:12;;;;;;;0.40;0.40;;;;;;;;;;4980155;28;20115;-66
2024/01/24 03:19:38;;;;;;;0.22;0.22;;;;;;;;;;4998020;28;20096;-67
2024/01/24 03:22:03;;;;;;;2.58;0.50;;;;;;;;;;4998617;28;20125;-65
2024/01/24 03:24:29;;;;;;;1.33;0.50;;;;;;;;;;4997718;28;20443;-67
2024/01/24 03:26:55;;;;;;;0.50;0.50;;;;;;;;;;4997925;28;20054;-68
2024/01/24 03:29:20;;;;;;;0.60;0.50;;;;;;;;;;4998221;28;20060;-66
2024/01/24 03:31:46;;;;;;;1.48;0.50;;;;;;;;;;4998318;28;20100;-65
2024/01/24 03:34:11;;;;;;;0.68;0.40;;;;;;;;;;4998352;28;20054;-67
2024/01/24 03:36:37;;;;;;;0.40;0.40;;;;;;;;;;4996720;28;20104;-67
2024/01/24 03:39:03;;;;;;;0.50;0.50;;;;;;;;;;4997068;28;20084;-66
2024/01/24 03:41:29;;;;;;;0.47;0.47;;;;;;;;;;4980173;28;20046;-68
2024/01/24 03:43:55;;;;;;;0.40;0.40;;;;;;;;;;4997184;28;20084;-65
2024/01/24 03:46:21;;;;;;;0.68;0.50;;;;;;;;;;4997054;28;20081;-65
2024/01/24 03:48:46;;;;;;;0.70;0.70;;;;;;;;;;4996704;28;20136;-65
2024/01/24 03:51:12;;;;;;;1.15;1.02;;;;;;;;;;4996332;28;20095;-68
2024/01/24 03:53:38;;;;;;;1.48;1.08;;;;;;;;;;4980904;28;20595;-68
2024/01/24 03:56:05;;;;;;;1.50;0.90;;;;;;;;;;4997621;28;20160;-65
2024/01/24 03:58:31;;;;;;;1.20;1.10;;;;;;;;;;4997077;28;20081;-64
2024/01/24 04:00:57;;;;;;;1.30;1.20;;;;;;;;;;4996199;28;20046;-64
2024/01/24 04:03:22;;;;;;;4.53;1.10;;;;;;;;;;4997542;28;20497;-66
2024/01/24 04:05:47;;;;;;;0.95;0.95;;;;;;;;;;4997039;28;20130;-65
2024/01/24 04:08:13;;;;;;;1.00;0.90;;;;;;;;;;4997796;28;20041;-64
2024/01/24 04:10:38;;;;;;;0.80;0.80;;;;;;;;;;4996105;28;20131;-65
2024/01/24 04:13:04;;;;;;;0.80;0.80;;;;;;;;;;4996315;28;20056;-64
2024/01/24 04:15:29;;;;;;;0.80;0.80;;;;;;;;;;4997574;28;20049;-64
2024/01/24 04:17:55;;;;;;;5.13;1.42;;;;;;;;;;4996606;28;20053;-65
2024/01/24 04:20:20;;;;;;;0.60;0.60;;;;;;;;;;4997352;28;20088;-66
2024/01/24 04:22:46;;;;;;;1.70;0.70;;;;;;;;;;4994982;28;20179;-67
2024/01/24 04:25:12;;;;;;;1.95;1.15;;;;;;;;;;4997849;28;20701;-66
2024/01/24 04:27:37;;;;;;;1.10;1.05;;;;;;;;;;4997168;28;20061;-68
2024/01/24 04:30:04;;;;;;;1.48;1.25;;;;;;;;;;4997067;28;20063;-63
2024/01/24 04:32:30;;;;;;;2.25;1.13;;;;;;;;;;4996092;28;20045;-65
2024/01/24 04:34:55;;;;;;;1.55;1.00;;;;;;;;;;4995184;28;20104;-65
2024/01/24 04:37:52;;;;;;;0.93;0.93;;;;;;;;;;4997175;28;20052;-63
2024/01/24 04:40:18;;;;;;;0.82;0.82;;;;;;;;;;4993254;28;20498;-65
2024/01/24 04:42:43;;;;;;;0.88;0.88;;;;;;;;;;4994932;28;20057;-65
2024/01/24 04:45:10;;;;;;;1.08;0.98;;;;;;;;;;4995694;28;20049;-65
2024/01/24 04:47:38;;;;;;;1.17;1.00;;;;;;;;;;4996577;28;20562;-64
2024/01/24 04:50:04;;;;;;;0.80;0.80;;;;;;;;;;4996205;28;20105;-68
2024/01/24 04:52:30;;;;;;;1.48;1.20;;;;;;;;;;4996585;28;20048;-66
2024/01/24 04:54:55;;;;;;;2.67;1.00;;;;;;;;;;4980605;28;20045;-69
2024/01/24 04:57:21;;;;;;;1.50;1.10;;;;;;;;;;4996291;28;20616;-66
2024/01/24 04:59:46;;;;;;;1.50;1.27;;;;;;;;;;4995744;28;20038;-67
2024/01/24 05:02:11;;;;;;;3.78;1.20;;;;;;;;;;4980032;28;20174;-66
2024/01/24 05:04:37;;;;;;;1.00;1.00;;;;;;;;;;4995731;28;20963;-68
2024/01/24 05:07:02;;;;;;;1.42;1.08;;;;;;;;;;4979661;28;20037;-67
2024/01/24 05:09:28;;;;;;;1.00;1.00;;;;;;;;;;4979579;28;20042;-69
2024/01/24 05:11:53;;;;;;;1.75;1.00;;;;;;;;;;4995150;28;20582;-67
2024/01/24 05:14:19;;;;;;;0.60;0.60;;;;;;;;;;4995394;28;20565;-69
2024/01/24 05:16:44;;;;;;;0.40;0.40;;;;;;;;;;4993819;28;20046;-69
2024/01/24 05:19:10;;;;;;;0.50;0.50;;;;;;;;;;4994685;28;20095;-68
2024/01/24 05:21:40;;;;;;;0.22;0.22;;;;;;;;;;4994335;28;20061;-68
2024/01/24 05:24:06;;;;;;;0.30;0.30;;;;;;;;;;4993721;28;20045;-67
2024/01/24 05:26:31;;;;;;;0.40;0.40;;;;;;;;;;4961674;28;20038;-69
2024/01/24 05:28:57;;;;;;;0.30;0.30;;;;;;;;;;4993090;28;20637;-68
2024/01/24 05:31:22;;;;;;;1.48;0.95;;;;;;;;;;4995110;28;20042;-67
2024/01/24 05:33:48;;;;;;;0.30;0.30;;;;;;;;;;4976494;28;20041;-68
2024/01/24 05:36:14;;;;;;;0.20;0.20;;;;;;;;;;4995545;28;20037;-68
2024/01/24 05:38:39;;;;;;;0.30;0.30;;;;;;;;;;4993015;28;20042;-66
2024/01/24 05:41:05;;;;;;;0.30;0.30;;;;;;;;;;4975017;28;20054;-69
2024/01/24 05:43:30;;;;;;;0.30;0.30;;;;;;;;;;4960692;28;20038;-68
2024/01/24 05:45:55;;;;;;;0.40;0.40;;;;;;;;;;4993897;28;20121;-67
2024/01/24 05:48:21;;;;;;;0.73;0.45;;;;;;;;;;4994799;28;20045;-67
2024/01/24 05:50:47;;;;;;;0.68;0.50;;;;;;;;;;4957842;28;20037;-68
2024/01/24 05:53:13;;;;;;;0.30;0.30;;;;;;;;;;4994970;28;20038;-67
2024/01/24 05:55:38;;;;;;;0.22;0.22;;;;;;;;;;4995781;28;20403;-65
2024/01/24 05:58:05;;;;;;;1.58;0.90;;;;;;;;;;4978477;28;20105;-70
2024/01/24 06:00:31;;;;;;;1.85;0.30;;;;;;;;;;4993602;28;20406;-68
2024/01/24 06:02:56;;;;;;;0.43;0.43;;;;;;;;;;4993556;28;20045;-70
2024/01/24 06:05:22;;;;;;;1.20;0.40;;;;;;;;;;4995803;28;20080;-70
2024/01/24 06:07:50;;;;;;;0.25;0.25;;;;;;;;;;4994340;28;20042;-67
2024/01/24 06:10:16;;;;;;;0.55;0.40;;;;;;;;;;4977244;28;20634;-69
2024/01/24 06:12:41;;;;;;;0.20;0.20;;;;;;;;;;4992634;28;20080;-67
2024/01/24 06:15:10;;;;;;;0.20;0.20;;;;;;;;;;4998092;28;20042;-67
2024/01/24 06:17:36;;;;;;;0.47;0.30;;;;;;;;;;4997056;28;20466;-67
2024/01/24 06:20:01;;;;;;;0.20;0.20;;;;;;;;;;4995979;28;20711;-67
2024/01/24 06:22:27;;;;;;;0.70;0.40;;;;;;;;;;4997455;28;20049;-68
2024/01/24 06:24:52;;;;;;;0.43;0.43;;;;;;;;;;4995889;28;20046;-67
2024/01/24 06:27:17;;;;;;;0.45;0.45;;;;;;;;;;4998496;28;20045;-68
2024/01/24 06:29:43;;;;;;;1.55;0.32;;;;;;;;;;4997401;28;20414;-67
2024/01/24 06:32:08;;;;;;;0.40;0.40;;;;;;;;;;4997846;28;20963;-68
2024/01/24 06:34:34;;;;;;;0.30;0.30;;;;;;;;;;4997229;28;20107;-67
2024/01/24 06:36:59;;;;;;;0.30;0.30;;;;;;;;;;4996231;28;20092;-67
2024/01/24 06:39:25;;;;;;;0.30;0.22;;;;;;;;;;4996204;28;20526;-67
2024/01/24 06:41:51;;;;;;;0.32;0.32;;;;;;;;;;4997782;28;20057;-67
2024/01/24 06:44:16;;;;;;;0.43;0.40;;;;;;;;;;4998944;28;20525;-67
2024/01/24 06:46:43;;;;;;;0.30;0.30;;;;;;;;;;4997328;28;20046;-67
2024/01/24 06:49:10;;;;;;;0.30;0.30;;;;;;;;;;4995940;28;20522;-67
2024/01/24 06:51:38;;;;;;;0.40;0.40;;;;;;;;;;4998804;28;20045;-67
2024/01/24 06:54:07;;;;;;;1.10;0.40;;;;;;;;;;4997444;28;20069;-68
2024/01/24 06:56:32;;;;;;;0.47;0.47;;;;;;;;;;4996392;28;20057;-67
2024/01/24 06:58:59;;;;;;;0.40;0.40;;;;;;;;;;4997259;28;20050;-67
2024/01/24 07:01:24;;;;;;;0.70;0.40;;;;;;;;;;4997431;28;20080;-67
2024/01/24 07:03:50;;;;;;;0.55;0.40;;;;;;;;;;4998406;28;20046;-67
2024/01/24 07:06:15;;;;;;;1.05;0.40;;;;;;;;;;4996365;28;20050;-68
2024/01/24 07:08:41;;;;;;;8.02;0.50;;;;;;;;;;4996567;28;20037;-68
2024/01/24 07:11:07;;;;;;;1.13;0.55;;;;;;;;;;4997761;28;20053;-68
2024/01/24 07:13:33;;;;;;;0.65;0.40;;;;;;;;;;4998681;28;20918;-68
2024/01/24 07:16:02;;;;;;;0.52;0.30;;;;;;;;;;4997898;28;20042;-68
2024/01/24 07:18:27;;;;;;;0.40;0.40;;;;;;;;;;4996893;28;20038;-67
2024/01/24 07:20:54;;;;;;;0.30;0.30;;;;;;;;;;4998421;28;20052;-69
2024/01/24 07:23:19;;;;;;;0.38;0.38;;;;;;;;;;4998130;28;20064;-68
2024/01/24 07:25:45;;;;;;;0.43;0.38;;;;;;;;;;4997589;28;20041;-69
2024/01/24 07:28:10;;;;;;;0.35;0.35;;;;;;;;;;4997670;28;20068;-68
2024/01/24 07:30:36;;;;;;;0.45;0.43;;;;;;;;;;4996613;28;20072;-69
2024/01/24 07:33:03;;;;;;;0.20;0.20;;;;;;;;;;4997058;28;20049;-68
2024/01/24 07:35:29;;;;;;;0.55;0.22;;;;;;;;;;4997810;28;20053;-67
2024/01/24 07:37:54;;;;;;;0.45;0.45;;;;;;;;;;4979985;28;20042;-68
2024/01/24 07:40:20;;;;;;;0.57;0.40;;;;;;;;;;4995540;28;20151;-70
2024/01/24 07:42:45;;;;;;;0.20;0.20;;;;;;;;;;4997039;28;20064;-71
2024/01/24 07:45:11;;;;;;;0.30;0.30;;;;;;;;;;4981022;28;20642;-68
2024/01/24 07:47:36;;;;;;;1.13;0.20;;;;;;;;;;4996160;28;20072;-70
2024/01/24 07:50:03;;;;;;;0.20;0.20;;;;;;;;;;4997230;28;20049;-67
2024/01/24 07:52:28;;;;;;;0.60;0.50;;;;;;;;;;4997002;28;20053;-73
2024/01/24 07:54:53;;;;;;;0.40;0.40;;;;;;;;;;4997982;28;20054;-67
2024/01/24 07:57:19;;;;;;;0.75;0.35;;;;;;;;;;4980249;28;20436;-71
2024/01/24 07:59:44;;;;;;;0.20;0.20;;;;;;;;;;4980025;28;20042;-68
2024/01/24 08:02:10;;;;;;;0.20;0.20;;;;;;;;;;4996189;28;20072;-71
2024/01/24 08:04:35;;;;;;;1.00;0.45;;;;;;;;;;4996611;28;20124;-68
2024/01/24 08:07:00;;;;;;;0.50;0.30;;;;;;;;;;4996832;28;20046;-70
2024/01/24 08:09:26;;;;;;;0.20;0.20;;;;;;;;;;4997198;28;20054;-69
2024/01/24 08:11:53;;;;;;;0.35;0.30;;;;;;;;;;4996876;28;21262;-69
2024/01/24 08:14:18;;;;;;;0.15;0.15;;;;;;;;;;4995988;28;20415;-69
2024/01/24 08:17:06;;;;;;;0.63;0.40;;;;;;;;;;4996125;28;20073;-69
2024/01/24 08:19:32;;;;;;;0.20;0.20;;;;;;;;;;4997037;28;20050;-68
2024/01/24 08:21:58;;;;;;;0.47;0.40;;;;;;;;;;4996392;28;20058;-73
2024/01/24 08:24:24;;;;;;;0.25;0.25;;;;;;;;;;4995020;28;20042;-70
2024/01/24 08:26:51;;;;;;;0.30;0.30;;;;;;;;;;4996443;28;20053;-70
2024/01/24 08:29:17;;;;;;;0.50;0.50;;;;;;;;;;4995944;28;20148;-67
2024/01/24 08:31:43;;;;;;;0.52;0.50;;;;;;;;;;4996620;28;20038;-68
2024/01/24 08:34:08;;;;;;;0.40;0.40;;;;;;;;;;4981150;28;20056;-68
2024/01/24 08:36:34;;;;;;;0.55;0.55;;;;;;;;;;4995401;28;20065;-73
2024/01/24 08:39:00;;;;;;;0.40;0.40;;;;;;;;;;4997015;28;20049;-69
2024/01/24 08:41:25;;;;;;;0.65;0.47;;;;;;;;;;4996183;28;20033;-68
2024/01/24 08:43:52;;;;;;;1.25;0.35;;;;;;;;;;4996746;28;20041;-69
2024/01/24 08:46:17;;;;;;;0.82;0.47;;;;;;;;;;4994827;28;20045;-66
2024/01/24 08:48:43;;;;;;;1.38;0.35;;;;;;;;;;4996001;28;20049;-70
2024/01/24 08:51:08;;;;;;;0.57;0.38;;;;;;;;;;4995988;28;20046;-69
2024/01/24 08:53:33;;;;;;;1.55;0.68;;;;;;;;;;4996698;28;20116;-67
2024/01/24 08:55:59;;;;;;;0.68;0.40;;;;;;;;;;4997076;28;20424;-68
2024/01/24 08:58:24;;;;;;;0.47;0.47;;;;;;;;;;4995283;28;20084;-70
2024/01/24 09:00:50;;;;;;;0.50;0.50;;;;;;;;;;4994542;28;20107;-68
2024/01/24 09:03:15;;;;;;;0.55;0.50;;;;;;;;;;4995844;28;20053;-70
2024/01/24 09:05:41;;;;;;;0.98;0.63;;;;;;;;;;4997043;28;20096;-66
2024/01/24 09:08:07;;;;;;;1.55;0.45;;;;;;;;;;4995937;28;20053;-67
2024/01/24 09:10:33;;;;;;;0.40;0.40;;;;;;;;;;4995430;28;20038;-68
2024/01/24 09:12:58;;;;;;;0.55;0.35;;;;;;;;;;4996883;28;20049;-67
2024/01/24 09:15:24;;;;;;;0.50;0.50;;;;;;;;;;4993385;28;20046;-71
2024/01/24 09:17:50;;;;;;;1.05;0.80;;;;;;;;;;4996399;28;20737;-71
2024/01/24 09:20:16;;;;;;;0.63;0.38;;;;;;;;;;4995356;28;20081;-67
2024/01/24 09:22:41;;;;;;;1.08;0.40;;;;;;;;;;4996043;28;20133;-70
2024/01/24 09:25:07;;;;;;;0.98;0.40;;;;;;;;;;4995863;28;20049;-71
2024/01/24 09:27:32;;;;;;;0.40;0.40;;;;;;;;;;4997010;28;20045;-69
2024/01/24 09:29:58;;;;;;;0.22;0.22;;;;;;;;;;4996627;28;20038;-68
2024/01/24 09:32:23;;;;;;;8.57;0.43;;;;;;;;;;4994803;28;20400;-68
2024/01/24 09:34:49;;;;;;;1.33;0.43;;;;;;;;;;4995257;28;20053;-68
2024/01/24 09:37:15;;;;;;;1.30;0.60;;;;;;;;;;4995772;28;20042;-69
2024/01/24 09:39:40;;;;;;;0.20;0.20;;;;;;;;;;4993761;28;20968;-68
2024/01/24 09:42:16;;;;;;;1.67;0.47;;;;;;;;;;4995538;28;20523;-73
2024/01/24 09:44:48;;;;;;;0.30;0.30;;;;;;;;;;4992059;28;20053;-69
2024/01/24 09:47:15;;;;;;;0.47;0.47;;;;;;;;;;4994361;28;20071;-68
2024/01/24 09:49:40;;;;;;;0.50;0.40;;;;;;;;;;5000779;28;20045;-67
2024/01/24 09:52:08;;;;;;;0.30;0.30;;;;;;;;;;5002845;28;20053;-67
2024/01/24 09:54:35;;;;;;;0.98;0.60;;;;;;;;;;5001274;28;20049;-68
2024/01/24 09:57:01;;;;;;;0.77;0.45;;;;;;;;;;5003044;28;20922;-72
2024/01/24 09:59:27;;;;;;;0.98;0.73;;;;;;;;;;5002229;28;20089;-72
2024/01/24 10:01:52;;;;;;;0.20;0.20;;;;;;;;;;4984592;28;20046;-68
2024/01/24 10:04:18;;;;;;;0.40;0.40;;;;;;;;;;5000543;28;20042;-68
2024/01/24 10:06:45;;;;;;;0.55;0.55;;;;;;;;;;4986141;28;20104;-69
2024/01/24 10:09:10;;;;;;;0.30;0.30;;;;;;;;;;5001674;28;20076;-67
2024/01/24 10:11:36;;;;;;;0.65;0.57;;;;;;;;;;4986440;28;20540;-69
2024/01/24 10:14:01;;;;;;;0.25;0.25;;;;;;;;;;5002793;28;20050;-69
2024/01/24 10:16:27;;;;;;;0.30;0.30;;;;;;;;;;5000758;28;20132;-68
2024/01/24 10:18:56;;;;;;;1.35;0.40;;;;;;;;;;5002121;28;20060;-69
2024/01/24 10:21:22;;;;;;;0.80;0.40;;;;;;;;;;5001631;28;20053;-66
2024/01/24 10:23:48;;;;;;;0.55;0.50;;;;;;;;;;5001365;28;20090;-69
2024/01/24 10:26:14;;;;;;;0.45;0.45;;;;;;;;;;5000750;28;20041;-69
2024/01/24 10:28:41;;;;;;;0.63;0.40;;;;;;;;;;4983879;28;20046;-70
2024/01/24 10:31:07;;;;;;;1.10;0.40;;;;;;;;;;5001910;28;20049;-69
2024/01/24 10:33:33;;;;;;;0.60;0.60;;;;;;;;;;5001769;28;20052;-69
2024/01/24 10:36:00;;;;;;;0.32;0.32;;;;;;;;;;5002285;28;20042;-69
2024/01/24 10:38:31;;;;;;;1.75;0.47;;;;;;;;;;5000921;28;20104;-69
2024/01/24 10:41:01;;;;;;;0.50;0.40;;;;;;;;;;5001572;28;20904;-69
2024/01/24 10:43:27;;;;;;;0.43;0.30;;;;;;;;;;5001110;28;20576;-69
2024/01/24 10:45:54;;;;;;;0.40;0.40;;;;;;;;;;5001999;28;20455;-69
2024/01/24 10:48:19;;;;;;;0.68;0.68;;;;;;;;;;5000933;28;20061;-70
2024/01/24 10:50:45;;;;;;;0.45;0.40;;;;;;;;;;4983371;28;20041;-70
2024/01/24 10:53:11;;;;;;;2.97;0.60;;;;;;;;;;5002179;28;20060;-69
2024/01/24 10:55:38;;;;;;;0.32;0.32;;;;;;;;;;5001193;28;20798;-70
2024/01/24 10:58:03;;;;;;;7.40;0.57;;;;;;;;;;5001515;28;20067;-70
2024/01/24 11:00:29;;;;;;;0.85;0.32;;;;;;;;;;4996991;28;20053;-69
2024/01/24 11:02:55;;;;;;;0.20;0.20;;;;;;;;;;4999083;28;20058;-67
2024/01/24 11:05:26;;;;;;;0.30;0.30;;;;;;;;;;4997799;28;20553;-67
2024/01/24 11:08:06;;;;;;;1.45;0.50;;;;;;;;;;4998832;28;20054;-68
2024/01/24 11:10:37;;;;;;;0.50;0.50;;;;;;;;;;4996302;28;20108;-69
2024/01/24 11:13:05;;;;;;;1.33;0.43;;;;;;;;;;4998227;28;20041;-69
2024/01/24 11:15:31;;;;;;;0.35;0.35;;;;;;;;;;4997415;28;20856;-67
2024/01/24 11:18:20;;;;;;;0.30;0.30;;;;;;;;;;4998581;28;20046;-69
2024/01/24 11:20:47;;;;;;;0.50;0.50;;;;;;;;;;4997196;28;20412;-70
2024/01/24 11:23:38;;;;;;;1.05;0.50;;;;;;;;;;4998604;28;20504;-70
2024/01/24 11:26:04;;;;;;;0.47;0.30;;;;;;;;;;4998440;28;20145;-68
2024/01/24 11:28:30;;;;;;;0.88;0.60;;;;;;;;;;4981085;28;20149;-69
2024/01/24 11:30:56;;;;;;;2.33;0.68;;;;;;;;;;4997955;28;20054;-68
2024/01/24 11:33:21;;;;;;;0.30;0.30;;;;;;;;;;4996871;28;20049;-68
2024/01/24 11:35:47;;;;;;;0.40;0.40;;;;;;;;;;4980636;28;20370;-70
2024/01/24 11:38:26;;;;;;;1.25;0.60;;;;;;;;;;4998019;28;20049;-69
2024/01/24 11:40:56;;;;;;;0.40;0.40;;;;;;;;;;4997673;28;20054;-70
2024/01/24 11:43:24;;;;;;;0.40;0.40;;;;;;;;;;4996430;28;20088;-69
2024/01/24 11:46:06;;;;;;;0.65;0.65;;;;;;;;;;4979997;28;20037;-70
2024/01/24 11:48:34;;;;;;;0.40;0.40;;;;;;;;;;4978388;28;20053;-69
2024/01/24 11:51:04;;;;;;;0.43;0.40;;;;;;;;;;4997321;28;20489;-69
2024/01/24 11:53:30;;;;;;;0.40;0.40;;;;;;;;;;4996227;28;20057;-69
2024/01/24 11:55:58;;;;;;;0.68;0.20;;;;;;;;;;4997357;28;20057;-71
2024/01/24 11:58:28;;;;;;;0.20;0.20;;;;;;;;;;4997116;28;20514;-69
2024/01/24 12:00:56;;;;;;;1.02;0.60;;;;;;;;;;4995967;28;20120;-70
2024/01/24 12:03:21;;;;;;;0.50;0.40;;;;;;;;;;4997279;28;20053;-73
2024/01/24 12:05:48;;;;;;;1.20;0.52;;;;;;;;;;4996057;28;20103;-73
2024/01/24 12:08:13;;;;;;;0.40;0.40;;;;;;;;;;4997683;28;20636;-70
2024/01/24 12:10:39;;;;;;;0.95;0.50;;;;;;;;;;4994508;28;20050;-72
2024/01/24 12:13:06;;;;;;;0.43;0.30;;;;;;;;;;4997366;28;20046;-71
2024/01/24 12:15:35;;;;;;;0.43;0.43;;;;;;;;;;4995923;28;20052;-71
2024/01/24 12:18:13;;;;;;;0.40;0.40;;;;;;;;;;4997755;28;20045;-72
2024/01/24 12:20:45;;;;;;;0.40;0.40;;;;;;;;;;4995612;28;20584;-74
2024/01/24 12:23:11;;;;;;;2.47;0.30;;;;;;;;;;4980095;28;20099;-72
2024/01/24 12:25:36;;;;;;;0.30;0.30;;;;;;;;;;4995928;28;20046;-70
2024/01/24 12:28:02;;;;;;;0.75;0.30;;;;;;;;;;4996908;28;20065;-70
2024/01/24 12:30:37;;;;;;;0.43;0.43;;;;;;;;;;4981183;28;20069;-74
2024/01/24 12:33:03;;;;;;;0.43;0.43;;;;;;;;;;4997510;28;20049;-73
2024/01/24 12:35:30;;;;;;;0.68;0.40;;;;;;;;;;4980329;28;20041;-72
2024/01/24 12:37:59;;;;;;;0.52;0.40;;;;;;;;;;4995497;28;20038;-73
2024/01/24 12:40:26;;;;;;;0.45;0.25;;;;;;;;;;4996326;28;20530;-70
2024/01/24 12:42:52;;;;;;;0.95;0.30;;;;;;;;;;4996396;28;20061;-72
2024/01/24 12:45:19;;;;;;;0.63;0.38;;;;;;;;;;4996845;28;20049;-69
2024/01/24 12:47:44;;;;;;;1.45;0.52;;;;;;;;;;4995838;28;20041;-68
2024/01/24 12:50:12;;;;;;;1.02;0.50;;;;;;;;;;4979257;28;20502;-71
2024/01/24 12:52:38;;;;;;;0.40;0.40;;;;;;;;;;4995256;28;20044;-72
2024/01/24 12:55:08;;;;;;;0.38;0.38;;;;;;;;;;4996796;28;20050;-72
2024/01/24 12:57:34;;;;;;;0.50;0.50;;;;;;;;;;4978346;28;20049;-73
2024/01/24 13:00:00;;;;;;;0.30;0.30;;;;;;;;;;4996099;28;20038;-70
2024/01/24 13:02:28;;;;;;;0.40;0.40;;;;;;;;;;4995187;28;20042;-69
2024/01/24 13:04:53;;;;;;;0.40;0.40;;;;;;;;;;4995680;28;20650;-72
2024/01/24 13:07:19;;;;;;;0.20;0.20;;;;;;;;;;4996172;28;20064;-68
2024/01/24 13:09:44;;;;;;;0.47;0.40;;;;;;;;;;4994626;28;20048;-69
2024/01/24 13:12:10;;;;;;;0.47;0.47;;;;;;;;;;4996192;28;20480;-71
2024/01/24 13:14:36;;;;;;;0.40;0.40;;;;;;;;;;4995521;28;20053;-72
2024/01/24 13:17:03;;;;;;;0.50;0.50;;;;;;;;;;4996225;28;20060;-69
2024/01/24 13:19:28;;;;;;;0.55;0.50;;;;;;;;;;4995754;28;20045;-72
2024/01/24 13:21:58;;;;;;;0.40;0.40;;;;;;;;;;4995706;28;20037;-72
2024/01/24 13:24:25;;;;;;;2.58;0.70;;;;;;;;;;4976833;28;20049;-71
2024/01/24 13:26:51;;;;;;;0.30;0.30;;;;;;;;;;4995457;28;20163;-68
2024/01/24 13:29:16;;;;;;;0.40;0.40;;;;;;;;;;4993724;28;20839;-71
2024/01/24 13:31:42;;;;;;;0.45;0.40;;;;;;;;;;4992572;28;20037;-71
2024/01/24 13:34:07;;;;;;;0.30;0.30;;;;;;;;;;4995617;28;20183;-69
2024/01/24 13:36:33;;;;;;;0.50;0.47;;;;;;;;;;4993401;28;20049;-68
2024/01/24 13:38:59;;;;;;;0.20;0.20;;;;;;;;;;4995562;28;20124;-70
2024/01/24 13:41:24;;;;;;;0.30;0.30;;;;;;;;;;4994714;28;20157;-68
2024/01/24 13:43:50;;;;;;;0.20;0.20;;;;;;;;;;4994477;28;20381;-69
2024/01/24 13:46:16;;;;;;;0.52;0.40;;;;;;;;;;4995124;28;20104;-68
2024/01/24 13:48:41;;;;;;;0.20;0.20;;;;;;;;;;4993383;28;20575;-71
2024/01/24 13:51:07;;;;;;;0.20;0.20;;;;;;;;;;4994230;28;20104;-70
2024/01/24 13:53:33;;;;;;;0.30;0.30;;;;;;;;;;4995176;28;20046;-70
2024/01/24 13:55:58;;;;;;;0.55;0.30;;;;;;;;;;4993797;28;20042;-70
2024/01/24 13:58:24;;;;;;;4.68;0.63;;;;;;;;;;4995552;28;20052;-69
2024/01/24 14:00:50;;;;;;;0.47;0.40;;;;;;;;;;4992807;28;20060;-70
2024/01/24 14:03:15;;;;;;;0.20;0.20;;;;;;;;;;4979264;28;20084;-71
2024/01/24 14:05:41;;;;;;;0.93;0.40;;;;;;;;;;4993798;28;20069;-70
2024/01/24 14:08:07;;;;;;;0.28;0.22;;;;;;;;;;4995307;28;20050;-70
2024/01/24 14:10:33;;;;;;;0.50;0.40;;;;;;;;;;4994002;28;20085;-71
2024/01/24 14:12:59;;;;;;;0.30;0.30;;;;;;;;;;4976502;28;20618;-69
2024/01/24 14:15:24;;;;;;;1.02;0.50;;;;;;;;;;4978369;28;20049;-72
2024/01/24 14:17:50;;;;;;;0.50;0.50;;;;;;;;;;4959444;28;20038;-69
2024/01/24 14:20:15;;;;;;;0.40;0.40;;;;;;;;;;4994323;28;20045;-67
2024/01/24 14:22:41;;;;;;;0.47;0.28;;;;;;;;;;4991712;28;20542;-71
2024/01/24 14:25:08;;;;;;;0.20;0.20;;;;;;;;;;4994462;28;20478;-70
2024/01/24 14:27:33;;;;;;;0.90;0.60;;;;;;;;;;4993632;28;20042;-70
2024/01/24 14:29:59;;;;;;;1.27;0.70;;;;;;;;;;4995515;28;20411;-72
2024/01/24 14:32:24;;;;;;;0.60;0.60;;;;;;;;;;4995520;28;20092;-72
2024/01/24 14:34:50;;;;;;;0.85;0.40;;;;;;;;;;4995563;28;20060;-69
2024/01/24 14:37:15;;;;;;;0.65;0.60;;;;;;;;;;4997967;28;20407;-71